Time;durP1;ratioP1;P1;durP2;ratioP2;P2;SDS_P1;SDS_P2;PMS_P1;PMS_P2;Temp;Humidity;BMP_temperature;BMP_pressure;BME280_temperature;BME280_humidity;BME280_pressure;Samples;Min_cycle;Max_cycle;Signal;HPM_P1;HPM_P2
2022/10/03 00:01:17;;;;;;;1.17;0.80;;;;;;;22.88;54.34;100185.09;20630439;28;20037;-79
2022/10/03 00:11:26;;;;;;;1.75;1.00;;;;;;;22.86;54.58;100185.19;20627032;28;20103;-78
2022/10/03 00:21:51;;;;;;;1.35;0.95;;;;;;;22.86;54.65;100179.91;20633550;28;20176;-77
2022/10/03 00:32:12;;;;;;;0.63;0.63;;;;;;;22.84;54.58;100187.16;20625285;28;20046;-77
2022/10/03 00:42:32;;;;;;;0.80;0.80;;;;;;;22.83;54.33;100183.66;20621011;28;20042;-76
2022/10/03 01:03:42;;;;;;;1.08;0.95;;;;;;;22.81;54.40;100175.06;20620847;28;22488;-78
2022/10/03 01:14:03;;;;;;;1.30;0.90;;;;;;;22.79;54.77;100163.78;20633943;28;20091;-78
2022/10/03 01:24:15;;;;;;;0.93;0.70;;;;;;;22.79;54.25;100173.50;20663355;28;20045;-77
2022/10/03 01:34:22;;;;;;;;;;;;;;;22.80;54.71;100183.94;20650428;28;20046;-77
2022/10/03 01:44:39;;;;;;;1.33;0.75;;;;;;;22.77;54.31;100201.88;20647274;28;19935;-76
2022/10/03 01:54:58;;;;;;;0.70;0.60;;;;;;;22.74;54.76;100202.13;20643304;28;20045;-77
2022/10/03 02:05:09;;;;;;;1.60;0.70;;;;;;;22.70;54.54;100196.25;20654087;28;20050;-77
2022/10/03 02:15:23;;;;;;;0.55;0.50;;;;;;;22.72;54.68;100223.38;20644934;28;20046;-77
2022/10/03 02:25:24;;;;;;;0.57;0.57;;;;;;;22.70;54.47;100223.50;20631475;28;20117;-76
2022/10/03 02:35:59;;;;;;;1.50;0.70;;;;;;;22.68;54.46;100233.34;20632717;28;20393;-77
2022/10/03 02:46:19;;;;;;;0.57;0.50;;;;;;;22.67;54.57;100255.44;20581410;28;20933;-77
2022/10/03 02:56:24;;;;;;;1.20;0.60;;;;;;;22.68;54.68;100264.22;20626037;28;20037;-77
2022/10/03 03:06:48;;;;;;;0.80;0.57;;;;;;;22.66;54.76;100261.69;20618118;28;20567;-77
2022/10/03 03:16:55;;;;;;;0.50;0.50;;;;;;;22.66;54.67;100264.31;20622079;28;20050;-77
2022/10/03 03:27:17;;;;;;;1.05;0.80;;;;;;;22.64;55.04;100268.06;20614340;28;20101;-77
2022/10/03 03:37:27;;;;;;;3.63;1.07;;;;;;;22.63;54.81;100264.59;20615549;28;20053;-78
2022/10/03 03:47:56;;;;;;;0.52;0.50;;;;;;;22.62;54.93;100286.66;20624871;28;20046;-76
2022/10/03 03:58:11;;;;;;;1.30;0.70;;;;;;;22.60;54.96;100293.06;20617088;28;20168;-77
2022/10/03 04:08:21;;;;;;;1.05;0.70;;;;;;;22.58;55.05;100289.69;20618699;28;20050;-77
2022/10/03 04:18:58;;;;;;;0.70;0.60;;;;;;;22.63;56.13;100285.72;20630478;28;20046;-77
2022/10/03 04:29:28;;;;;;;2.75;0.88;;;;;;;22.70;56.95;100299.19;20627226;28;20049;-78
2022/10/03 04:39:41;;;;;;;6.05;1.00;;;;;;;22.72;57.67;100289.34;20637395;28;20396;-82
2022/10/03 04:49:55;;;;;;;12.68;1.98;;;;;;;22.77;57.41;100307.44;20644450;28;20188;-78
2022/10/03 05:00:19;;;;;;;12.93;1.92;;;;;;;22.70;56.36;100323.81;20654497;28;20042;-77
2022/10/03 05:10:55;;;;;;;8.00;2.00;;;;;;;22.67;56.43;100341.72;20643658;28;20172;-76
2022/10/03 05:21:08;;;;;;;12.65;2.08;;;;;;;22.64;56.60;100358.66;20636497;28;20081;-75
2022/10/03 05:31:22;;;;;;;12.55;2.20;;;;;;;22.65;57.09;100365.56;20646151;28;20046;-75
2022/10/03 05:41:35;;;;;;;8.02;1.98;;;;;;;22.65;57.20;100364.75;20637807;28;20049;-75
2022/10/03 05:51:57;;;;;;;10.43;2.78;;;;;;;22.64;56.78;100374.47;20642745;28;20138;-75
2022/10/03 06:02:33;;;;;;;10.00;2.55;;;;;;;22.63;56.49;100382.50;20651993;28;20065;-75
2022/10/03 06:12:56;;;;;;;7.13;2.80;;;;;;;22.61;56.51;100382.63;20654809;28;20061;-75
2022/10/03 06:23:28;;;;;;;10.93;3.25;;;;;;;22.62;56.29;100408.06;20656978;28;20226;-75
2022/10/03 06:33:47;;;;;;;7.93;3.10;;;;;;;22.60;56.30;100409.16;20662680;28;20050;-75
2022/10/03 06:43:56;;;;;;;7.25;3.95;;;;;;;22.61;55.94;100419.59;20660100;28;20516;-75
2022/10/03 06:54:21;;;;;;;6.88;4.28;;;;;;;22.60;55.90;100428.47;20659583;28;20042;-75
2022/10/03 07:04:30;;;;;;;6.97;4.65;;;;;;;22.59;55.79;100429.44;20655602;28;20052;-75
2022/10/03 07:14:58;;;;;;;8.52;4.88;;;;;;;22.58;55.72;100433.03;20654244;28;20061;-75
2022/10/03 07:25:20;;;;;;;7.50;5.03;;;;;;;22.60;55.43;100441.66;20650525;28;20066;-75
2022/10/03 07:46:29;;;;;;;9.10;5.32;;;;;;;22.55;54.90;100438.56;20646468;28;20058;-75
2022/10/03 07:56:59;;;;;;;8.18;5.55;;;;;;;22.55;55.22;100435.94;20657344;28;20077;-74
2022/10/03 08:07:11;;;;;;;10.73;5.55;;;;;;;22.60;54.66;100446.13;20652104;28;20050;-74
2022/10/03 08:17:15;;;;;;;8.52;5.30;;;;;;;22.61;54.67;100434.59;20648004;28;23411;-74
2022/10/03 08:27:24;;;;;;;7.13;4.88;;;;;;;22.62;54.66;100430.97;20647937;28;20054;-74
2022/10/03 08:37:37;;;;;;;6.40;4.70;;;;;;;22.62;54.37;100417.78;20645889;28;20056;-74
2022/10/03 08:47:40;;;;;;;6.22;4.65;;;;;;;22.61;54.24;100416.94;20648915;28;20092;-75
2022/10/03 08:58:03;;;;;;;5.65;4.22;;;;;;;22.65;53.90;100433.38;20646853;28;20057;-74
2022/10/03 09:08:36;;;;;;;8.50;4.32;;;;;;;22.69;54.06;100426.84;20644210;28;20058;-74
2022/10/03 09:19:03;;;;;;;11.80;4.60;;;;;;;22.74;54.26;100423.84;20650673;28;20412;-76
2022/10/03 09:29:31;;;;;;;7.63;4.97;;;;;;;22.81;54.06;100428.50;20662379;28;20042;-76
2022/10/03 09:40:22;;;;;;;7.18;5.10;;;;;;;22.86;54.24;100428.09;20674878;28;20034;-76
2022/10/03 09:50:55;;;;;;;8.32;5.00;;;;;;;22.92;54.24;100424.94;20647449;28;20053;-74
2022/10/03 10:01:08;;;;;;;7.68;5.10;;;;;;;22.94;54.04;100428.28;20686748;28;20041;-75
2022/10/03 10:11:46;;;;;;;8.00;4.93;;;;;;;23.02;54.19;100446.97;20681442;28;20077;-75
2022/10/03 10:22:10;;;;;;;7.25;4.70;;;;;;;23.10;54.18;100441.03;20673437;28;20053;-74
2022/10/03 10:32:31;;;;;;;7.65;2.55;;;;;;;22.51;44.08;100450.34;20671707;28;20038;-75
2022/10/03 10:42:59;;;;;;;5.07;2.38;;;;;;;22.33;44.66;100445.56;20672431;28;20049;-76
2022/10/03 10:53:38;;;;;;;4.00;1.90;;;;;;;22.59;46.80;100452.34;20663397;28;20576;-76
2022/10/03 11:04:03;;;;;;;4.47;2.40;;;;;;;22.65;49.18;100446.56;20670250;28;20034;-72
2022/10/03 11:14:49;;;;;;;3.67;2.22;;;;;;;22.71;49.52;100465.34;20660574;28;20449;-75
2022/10/03 11:25:20;;;;;;;4.47;2.45;;;;;;;22.79;49.76;100463.88;20657783;28;20047;-74
2022/10/03 11:35:28;;;;;;;7.83;2.63;;;;;;;22.95;51.66;100450.22;20662099;28;20121;-75
2022/10/03 11:45:33;;;;;;;5.53;2.70;;;;;;;22.93;51.73;100445.09;20655949;28;20054;-74
2022/10/03 11:55:40;;;;;;;6.63;2.28;;;;;;;22.92;52.26;100451.34;20656657;28;20052;-74
2022/10/03 12:05:48;;;;;;;3.55;2.13;;;;;;;22.94;52.41;100459.16;20660637;28;20462;-74
2022/10/03 12:15:53;;;;;;;7.90;1.83;;;;;;;22.82;48.79;100477.66;20663485;28;20152;-74
2022/10/03 12:25:56;;;;;;;3.95;1.95;;;;;;;22.83;50.99;100468.78;20664186;28;20497;-73
2022/10/03 12:36:08;;;;;;;5.00;2.00;;;;;;;22.93;52.28;100470.66;20647573;28;20456;-74
2022/10/03 12:46:16;;;;;;;8.95;2.20;;;;;;;22.96;52.72;100476.53;20644537;28;20042;-76
2022/10/03 12:56:24;;;;;;;4.82;1.95;;;;;;;22.98;53.09;100458.75;20653785;28;20042;-75
2022/10/03 13:06:35;;;;;;;7.28;2.20;;;;;;;23.07;53.14;100448.38;20659742;28;20401;-74
2022/10/03 13:16:47;;;;;;;4.32;2.00;;;;;;;23.08;52.96;100447.41;20648802;28;20046;-74
2022/10/03 13:27:12;;;;;;;4.43;2.03;;;;;;;23.20;52.99;100441.09;20645434;28;20130;-75
2022/10/03 13:37:50;;;;;;;3.13;1.83;;;;;;;23.34;52.79;100440.78;20650406;28;22041;-74
2022/10/03 13:47:54;;;;;;;2.85;1.60;;;;;;;23.36;52.62;100429.25;20652302;28;20042;-75
2022/10/03 13:58:14;;;;;;;7.05;1.98;;;;;;;23.41;52.63;100424.38;20650508;28;20600;-74
2022/10/03 14:08:36;;;;;;;8.70;1.75;;;;;;;23.46;51.98;100433.59;20642167;28;20089;-74
2022/10/03 14:18:51;;;;;;;5.40;1.70;;;;;;;23.45;52.03;100436.38;20651703;28;20062;-74
2022/10/03 14:29:13;;;;;;;7.07;1.80;;;;;;;23.56;52.11;100428.34;20670219;28;20073;-73
2022/10/03 14:39:31;;;;;;;5.53;1.27;;;;;;;23.73;51.79;100418.09;20658477;28;20085;-76
2022/10/03 14:49:35;;;;;;;3.92;1.80;;;;;;;23.83;51.85;100422.44;20681750;28;20042;-76
2022/10/03 14:59:35;;;;;;;4.28;2.17;;;;;;;23.83;51.58;100433.00;20662582;28;20161;-75
2022/10/03 15:09:39;;;;;;;4.63;2.00;;;;;;;23.80;51.39;100448.31;20659630;28;20118;-75
2022/10/03 15:19:46;;;;;;;10.02;2.20;;;;;;;23.74;51.64;100446.22;20653965;28;20064;-74
2022/10/03 15:29:55;;;;;;;6.22;2.33;;;;;;;23.61;51.80;100446.47;20657933;28;20047;-74
2022/10/03 15:40:01;;;;;;;4.80;2.55;;;;;;;23.51;51.12;100446.44;20667595;28;20049;-74
2022/10/03 15:50:12;;;;;;;9.75;2.30;;;;;;;23.39;51.24;100450.94;20664648;28;20471;-74
2022/10/03 16:00:21;;;;;;;4.15;2.00;;;;;;;23.40;51.18;100471.13;20665392;28;20031;-74
2022/10/03 16:10:27;;;;;;;6.07;2.10;;;;;;;23.31;51.03;100456.91;20655735;28;20056;-74
2022/10/03 16:20:44;;;;;;;4.57;1.88;;;;;;;23.25;50.94;100473.25;20658353;28;20053;-75
2022/10/03 16:30:55;;;;;;;3.20;2.33;;;;;;;23.26;50.99;100467.00;20652627;28;20045;-74
2022/10/03 16:41:02;;;;;;;2.85;2.10;;;;;;;23.22;51.08;100472.69;20651222;28;20034;-75
2022/10/03 16:51:05;;;;;;;4.38;2.40;;;;;;;23.13;50.63;100483.03;20655820;28;20081;-75
2022/10/03 17:01:09;;;;;;;11.75;2.45;;;;;;;23.10;50.47;100501.78;20657156;28;20043;-79
2022/10/03 17:11:17;;;;;;;4.95;2.17;;;;;;;23.04;51.17;100499.66;20654677;28;20042;-76
2022/10/03 17:21:20;;;;;;;15.88;2.70;;;;;;;23.07;52.26;100502.03;20664429;28;20049;-78
2022/10/03 17:31:24;;;;;;;9.90;2.45;;;;;;;23.09;52.25;100499.28;20661234;28;20320;-79
2022/10/03 17:41:49;;;;;;;7.10;2.40;;;;;;;23.05;52.34;100498.69;20679254;28;20089;-74
2022/10/03 17:51:51;;;;;;;14.70;3.88;;;;;;;23.03;53.19;100522.59;20655922;28;20047;-75
2022/10/03 18:02:03;;;;;;;18.40;4.40;;;;;;;23.05;53.58;100519.81;20662179;28;20046;-76
2022/10/03 18:12:15;;;;;;;14.13;3.95;;;;;;;23.10;54.74;100538.75;20667832;28;20050;-75
2022/10/03 18:22:22;;;;;;;13.30;4.43;;;;;;;23.05;54.93;100548.88;20670632;28;20113;-75
2022/10/03 18:32:28;;;;;;;10.88;4.07;;;;;;;23.03;54.87;100561.34;20656335;28;20038;-76
2022/10/03 18:42:29;;;;;;;11.98;4.75;;;;;;;22.96;54.92;100568.09;20647461;28;20050;-74
2022/10/03 18:52:47;;;;;;;15.30;5.22;;;;;;;22.93;55.21;100573.66;20668557;28;20052;-74
2022/10/03 19:03:00;;;;;;;19.38;5.00;;;;;;;22.97;54.92;100569.78;20660821;28;20096;-74
2022/10/03 19:13:16;;;;;;;12.65;5.07;;;;;;;22.98;54.87;100559.09;20657484;28;20127;-81
2022/10/03 19:23:28;;;;;;;7.88;5.25;;;;;;;22.91;54.47;100542.09;20647976;28;20529;-76
2022/10/03 19:33:31;;;;;;;8.60;4.55;;;;;;;22.86;54.08;100542.47;20656274;28;20510;-75
2022/10/03 19:43:39;;;;;;;7.15;4.70;;;;;;;22.89;54.24;100541.38;20656988;28;20573;-75
2022/10/03 19:53:41;;;;;;;8.05;5.15;;;;;;;22.84;53.72;100554.13;20657554;28;20153;-75
2022/10/03 20:03:51;;;;;;;7.95;5.07;;;;;;;22.83;54.01;100568.28;20658893;28;20046;-75
2022/10/03 20:13:54;;;;;;;9.15;4.95;;;;;;;22.83;53.96;100576.22;20661091;28;20049;-75
2022/10/03 20:23:57;;;;;;;7.00;5.25;;;;;;;22.82;54.08;100585.09;20669924;28;20567;-75
2022/10/03 20:33:59;;;;;;;;;;;;;;;22.83;54.01;100582.31;20670497;28;20088;-75
2022/10/03 20:44:16;;;;;;;;;;;;;;;22.81;53.76;100578.97;20666431;28;20007;-75
2022/10/03 20:54:19;;;;;;;8.35;4.95;;;;;;;22.77;54.05;100576.72;20663301;28;19921;-75
2022/10/03 21:04:29;;;;;;;8.77;5.20;;;;;;;22.77;54.02;100590.72;20661124;28;20143;-75
2022/10/03 21:14:32;;;;;;;7.43;5.10;;;;;;;22.78;53.73;100597.69;20651552;28;20153;-74
2022/10/03 21:25:01;;;;;;;5.93;4.43;;;;;;;22.77;53.77;100609.22;20654574;28;20046;-74
2022/10/03 21:35:09;;;;;;;7.15;4.68;;;;;;;22.76;53.93;100609.34;20666013;28;20366;-75
2022/10/03 21:45:15;;;;;;;5.75;4.38;;;;;;;22.74;54.11;100624.47;20664928;28;20404;-75
2022/10/03 21:55:42;;;;;;;6.40;4.70;;;;;;;22.74;53.98;100624.47;20664701;28;20046;-74
2022/10/03 22:06:01;;;;;;;5.70;4.30;;;;;;;22.72;53.98;100627.22;20672001;28;20117;-75
2022/10/03 22:16:17;;;;;;;6.22;4.32;;;;;;;22.70;54.08;100606.25;20665180;28;20519;-74
2022/10/03 22:26:25;;;;;;;4.82;3.80;;;;;;;22.68;53.77;100592.31;20658098;28;20408;-74
2022/10/03 22:36:27;;;;;;;5.28;3.55;;;;;;;22.67;53.73;100597.72;20661678;28;20512;-74
2022/10/03 22:46:29;;;;;;;;;;;;;;;22.70;53.47;100603.59;20662661;28;20049;-75
2022/10/03 22:56:29;;;;;;;4.90;3.73;;;;;;;22.66;54.08;100604.78;20656702;28;19960;-75
2022/10/03 23:06:39;;;;;;;5.60;3.50;;;;;;;22.65;54.14;100603.13;20654242;28;20054;-75
2022/10/03 23:16:54;;;;;;;3.92;3.30;;;;;;;22.64;54.31;100604.09;20655918;28;20137;-75
2022/10/03 23:27:17;;;;;;;4.60;3.55;;;;;;;22.64;53.93;100604.09;20658491;28;20096;-75
2022/10/03 23:37:18;;;;;;;3.95;3.25;;;;;;;22.63;53.80;100610.34;20655114;28;20131;-75
2022/10/03 23:47:24;;;;;;;4.75;3.00;;;;;;;22.62;53.90;100618.34;20654960;28;20054;-75
2022/10/03 23:57:32;;;;;;;4.07;3.10;;;;;;;22.62;53.76;100636.84;20665265;28;20065;-75
